createdAt,value
2019-05-22T00:01:39.405Z,14.01
2019-05-22T00:04:13.377Z,14.10
2019-05-22T00:06:45.250Z,14.13
2019-05-22T00:09:20.450Z,14.07
2019-05-22T00:11:52.085Z,14.12
2019-05-22T00:14:22.303Z,14.21
2019-05-22T00:16:51.985Z,14.21
2019-05-22T00:19:22.525Z,14.18
2019-05-22T00:21:53.737Z,14.10
2019-05-22T00:24:26.462Z,13.98
2019-05-22T00:26:55.872Z,13.87
2019-05-22T00:29:26.245Z,13.78
2019-05-22T00:31:56.988Z,13.74
2019-05-22T00:34:27.939Z,13.66
2019-05-22T00:36:57.569Z,13.65
2019-05-22T00:39:28.536Z,13.69
2019-05-22T00:41:58.148Z,13.62
2019-05-22T00:44:29.126Z,13.56
2019-05-22T00:47:00.819Z,13.51
2019-05-22T00:49:31.054Z,13.46
2019-05-22T00:52:19.916Z,13.46
2019-05-22T00:54:59.256Z,13.46
2019-05-22T00:57:42.166Z,13.42
2019-05-22T01:00:24.122Z,13.49
2019-05-22T01:02:56.961Z,13.49
2019-05-22T01:05:29.428Z,13.49
2019-05-22T01:08:00.455Z,13.51
2019-05-22T01:10:30.046Z,13.49
2019-05-22T01:13:01.197Z,13.49
2019-05-22T01:15:31.619Z,13.47
2019-05-22T01:18:04.660Z,13.51
2019-05-22T01:20:34.508Z,13.49
2019-05-22T01:23:03.939Z,13.53
2019-05-22T01:25:34.224Z,13.53
2019-05-22T01:28:04.160Z,13.54
2019-05-22T01:30:44.451Z,13.48
2019-05-22T01:33:18.627Z,13.41
2019-05-22T01:36:01.465Z,13.44
2019-05-22T01:38:32.567Z,13.44
2019-05-22T01:41:18.475Z,13.40
2019-05-22T01:43:50.177Z,13.37
2019-05-22T01:46:21.673Z,13.32
2019-05-22T01:48:53.757Z,13.33
2019-05-22T01:51:23.152Z,13.39
2019-05-22T01:53:53.916Z,13.42
2019-05-22T01:56:24.692Z,13.45
2019-05-22T01:58:54.725Z,13.47
2019-05-22T02:01:26.883Z,13.50
2019-05-22T02:03:56.437Z,13.54
2019-05-22T02:06:26.382Z,13.53
2019-05-22T02:09:00.001Z,13.39
2019-05-22T02:11:30.186Z,13.35
2019-05-22T02:14:14.027Z,13.31
2019-05-22T02:16:56.192Z,13.40
2019-05-22T02:19:16.462Z,13.52
2019-05-22T02:21:45.912Z,13.57
2019-05-22T02:24:15.924Z,13.60
2019-05-22T02:26:45.964Z,13.63
2019-05-22T02:29:17.336Z,13.63
2019-05-22T02:31:47.999Z,13.52
2019-05-22T02:34:18.374Z,13.43
2019-05-22T02:36:48.552Z,13.43
2019-05-22T02:39:19.830Z,13.40
2019-05-22T02:41:54.070Z,13.36
2019-05-22T02:44:25.270Z,13.38
2019-05-22T02:47:14.384Z,13.39
2019-05-22T02:49:29.892Z,13.44
2019-05-22T02:52:00.841Z,13.46
2019-05-22T02:54:32.490Z,13.44
2019-05-22T02:57:03.534Z,13.47
2019-05-22T02:59:32.974Z,13.41
2019-05-22T03:02:03.781Z,13.39
2019-05-22T03:04:54.703Z,13.37
2019-05-22T03:07:25.816Z,13.35
2019-05-22T03:09:56.402Z,13.35
2019-05-22T03:12:27.690Z,13.32
2019-05-22T03:14:58.023Z,13.30
2019-05-22T03:17:30.560Z,13.37
2019-05-22T03:20:03.860Z,13.35
2019-05-22T03:22:48.434Z,13.23
2019-05-22T03:25:18.219Z,13.19
2019-05-22T03:27:50.222Z,13.17
2019-05-22T03:30:31.103Z,13.18
2019-05-22T03:33:06.235Z,13.20
2019-05-22T03:35:42.322Z,13.23
2019-05-22T03:38:12.880Z,13.18
2019-05-22T03:40:42.720Z,13.08
2019-05-22T03:43:24.449Z,13.06
2019-05-22T03:45:55.766Z,13.02
2019-05-22T03:48:26.386Z,12.98
2019-05-22T03:51:01.001Z,12.96
2019-05-22T03:53:30.476Z,12.93
2019-05-22T03:55:59.886Z,12.94
2019-05-22T03:58:29.352Z,13.06
2019-05-22T04:00:59.331Z,13.15
2019-05-22T04:03:29.006Z,13.19
2019-05-22T04:05:59.439Z,13.15
2019-05-22T04:08:29.010Z,13.09
2019-05-22T04:11:01.876Z,13.11
2019-05-22T04:13:32.874Z,13.21
2019-05-22T04:16:05.114Z,13.19
2019-05-22T04:18:35.859Z,13.20
2019-05-22T04:21:05.893Z,13.21
2019-05-22T04:23:36.683Z,13.18
2019-05-22T04:26:08.625Z,13.10
2019-05-22T04:28:50.948Z,13.03
2019-05-22T04:31:23.042Z,12.96
2019-05-22T04:33:53.078Z,12.93
2019-05-22T04:36:23.995Z,12.93
2019-05-22T04:38:53.858Z,12.95
2019-05-22T04:41:23.458Z,12.99
2019-05-22T04:43:53.607Z,13.06
2019-05-22T04:46:23.323Z,13.09
2019-05-22T04:48:53.978Z,13.09
2019-05-22T04:51:26.495Z,13.14
2019-05-22T04:53:58.262Z,13.08
2019-05-22T04:56:28.529Z,13.09
2019-05-22T04:58:59.560Z,13.07
2019-05-22T05:01:30.203Z,13.06
2019-05-22T05:03:59.779Z,13.00
2019-05-22T05:06:31.132Z,12.97
2019-05-22T05:09:00.552Z,12.97
2019-05-22T05:11:30.395Z,12.91
2019-05-22T05:14:00.193Z,12.95
2019-05-22T05:16:29.573Z,12.94
2019-05-22T05:18:59.382Z,12.87
2019-05-22T05:21:29.534Z,12.81
2019-05-22T05:23:59.113Z,12.79
2019-05-22T05:26:31.543Z,12.76
2019-05-22T05:29:01.212Z,12.76
2019-05-22T05:31:30.683Z,12.72
2019-05-22T05:34:17.801Z,12.72
2019-05-22T05:36:47.571Z,12.72
2019-05-22T05:39:39.997Z,12.70
2019-05-22T05:42:09.550Z,12.70
2019-05-22T05:44:39.123Z,12.72
2019-05-22T05:47:08.709Z,12.70
2019-05-22T05:49:39.141Z,12.66
2019-05-22T05:52:10.114Z,12.64
2019-05-22T05:54:39.488Z,12.60
2019-05-22T05:57:35.537Z,12.52
2019-05-22T06:00:10.279Z,12.44
2019-05-22T06:02:54.009Z,12.42
2019-05-22T06:05:11.280Z,12.37
2019-05-22T06:07:40.995Z,12.35
2019-05-22T06:10:29.522Z,12.35
2019-05-22T06:13:00.471Z,12.33
2019-05-22T06:15:47.595Z,12.35
2019-05-22T06:18:34.656Z,12.33
2019-05-22T06:21:06.088Z,12.36
2019-05-22T06:23:42.179Z,12.36
2019-05-22T06:26:16.635Z,12.36
2019-05-22T06:28:46.848Z,12.33
2019-05-22T06:31:40.854Z,12.31
2019-05-22T06:34:10.650Z,12.30
2019-05-22T06:36:40.384Z,12.27
2019-05-22T06:39:10.075Z,12.27
2019-05-22T06:41:41.251Z,12.27
2019-05-22T06:44:28.310Z,12.29
2019-05-22T06:46:58.134Z,12.34
2019-05-22T06:49:35.663Z,12.37
2019-05-22T06:52:07.239Z,12.40
2019-05-22T06:54:37.344Z,12.38
2019-05-22T06:57:09.409Z,12.39
2019-05-22T06:59:39.741Z,12.43
2019-05-22T07:02:10.313Z,12.47
2019-05-22T07:04:39.674Z,12.52
2019-05-22T07:07:11.853Z,12.58
2019-05-22T07:09:42.075Z,12.55
2019-05-22T07:12:14.318Z,12.58
2019-05-22T07:15:06.750Z,12.60
2019-05-22T07:17:37.398Z,12.63
2019-05-22T07:20:07.519Z,12.60
2019-05-22T07:22:37.544Z,12.57
2019-05-22T07:25:09.467Z,12.57
2019-05-22T07:27:39.795Z,12.63
2019-05-22T07:30:10.333Z,12.66
2019-05-22T07:32:40.084Z,12.70
2019-05-22T07:35:09.578Z,12.75
2019-05-22T07:37:40.875Z,12.80
2019-05-22T07:40:11.419Z,12.84
2019-05-22T07:42:40.858Z,12.91
2019-05-22T07:45:12.373Z,12.99
2019-05-22T07:47:42.711Z,13.04
2019-05-22T07:50:13.412Z,13.03
2019-05-22T07:52:43.743Z,12.98
2019-05-22T07:55:13.961Z,13.02
2019-05-22T07:57:48.586Z,13.03
2019-05-22T08:00:19.953Z,13.04
2019-05-22T08:02:50.334Z,13.01
2019-05-22T08:05:21.420Z,13.03
2019-05-22T08:07:51.357Z,12.98
2019-05-22T08:10:22.018Z,12.97
2019-05-22T08:12:51.806Z,12.98
2019-05-22T08:15:22.057Z,12.96
2019-05-22T08:17:51.535Z,12.93
2019-05-22T08:20:21.180Z,12.93
2019-05-22T08:22:51.337Z,12.92
2019-05-22T08:25:20.844Z,12.94
2019-05-22T08:27:50.617Z,12.99
2019-05-22T08:30:21.224Z,12.98
2019-05-22T08:32:50.891Z,12.97
2019-05-22T08:35:20.863Z,12.96
2019-05-22T08:37:53.410Z,12.93
2019-05-22T08:40:23.558Z,12.97
2019-05-22T08:42:53.105Z,13.06
2019-05-22T08:45:23.139Z,13.16
2019-05-22T08:47:52.825Z,13.14
2019-05-22T08:50:24.449Z,13.14
2019-05-22T08:52:53.959Z,13.19
2019-05-22T08:55:24.826Z,13.21
2019-05-22T08:57:54.489Z,13.15
2019-05-22T09:00:25.158Z,13.15
2019-05-22T09:02:54.695Z,13.23
2019-05-22T09:05:24.118Z,13.31
2019-05-22T09:07:53.585Z,13.39
2019-05-22T09:10:26.236Z,13.51
2019-05-22T09:12:54.913Z,13.62
2019-05-22T09:15:25.474Z,13.66
2019-05-22T09:17:54.946Z,13.69
2019-05-22T09:20:24.633Z,13.69
2019-05-22T09:22:54.771Z,13.71
2019-05-22T09:25:24.365Z,13.74
2019-05-22T09:27:53.789Z,13.77
2019-05-22T09:30:24.296Z,13.84
2019-05-22T09:32:54.143Z,13.92
2019-05-22T09:35:24.161Z,13.94
2019-05-22T09:37:53.671Z,13.98
2019-05-22T09:40:23.258Z,14.05
2019-05-22T09:42:52.759Z,14.09
2019-05-22T09:45:22.665Z,14.12
2019-05-22T09:47:53.075Z,14.14
2019-05-22T09:50:24.180Z,14.14
2019-05-22T09:52:58.004Z,14.16
2019-05-22T09:55:25.459Z,14.26
2019-05-22T09:57:55.322Z,14.43
2019-05-22T10:00:25.163Z,14.53
2019-05-22T10:02:54.745Z,14.64
2019-05-22T10:05:24.777Z,14.80
2019-05-22T10:08:00.922Z,14.88
2019-05-22T10:10:26.741Z,14.95
2019-05-22T10:12:56.649Z,14.98
2019-05-22T10:15:26.429Z,14.99
2019-05-22T10:17:55.975Z,14.91
2019-05-22T10:20:26.117Z,14.86
2019-05-22T10:22:55.713Z,14.85
2019-05-22T10:25:25.407Z,14.86
2019-05-22T10:27:58.977Z,14.86
2019-05-22T10:30:26.208Z,14.93
2019-05-22T10:32:55.697Z,14.96
2019-05-22T10:35:26.742Z,15.04
2019-05-22T10:37:56.729Z,15.15
2019-05-22T10:40:27.062Z,15.23
2019-05-22T10:42:57.194Z,15.29
2019-05-22T10:45:27.551Z,15.33
2019-05-22T10:47:58.284Z,15.32
2019-05-22T10:50:28.495Z,15.31
2019-05-22T10:52:58.594Z,15.22
2019-05-22T10:55:30.138Z,15.14
2019-05-22T10:58:00.129Z,15.08
2019-05-22T11:00:30.558Z,15.07
2019-05-22T11:03:00.011Z,15.14
2019-05-22T11:05:30.102Z,15.23
2019-05-22T11:07:59.802Z,15.25
2019-05-22T11:10:29.642Z,15.28
2019-05-22T11:12:59.396Z,15.33
2019-05-22T11:15:29.812Z,15.44
2019-05-22T11:17:59.389Z,15.42
2019-05-22T11:20:30.032Z,15.34
2019-05-22T11:22:59.787Z,15.17
2019-05-22T11:25:29.500Z,15.13
2019-05-22T11:28:00.109Z,15.21
2019-05-22T11:30:29.843Z,15.38
2019-05-22T11:32:59.895Z,15.59
2019-05-22T11:35:30.622Z,15.67
2019-05-22T11:37:59.989Z,15.63
2019-05-22T11:40:29.372Z,15.64
2019-05-22T11:42:59.086Z,15.66
2019-05-22T11:45:29.850Z,15.71
2019-05-22T11:47:59.223Z,15.71
2019-05-22T11:50:30.529Z,15.66
2019-05-22T11:52:59.953Z,15.62
2019-05-22T11:55:44.247Z,15.65
2019-05-22T11:58:02.542Z,15.77
2019-05-22T12:00:32.469Z,15.99
2019-05-22T12:03:02.198Z,16.16
2019-05-22T12:05:33.945Z,16.23
2019-05-22T12:08:03.479Z,16.28
2019-05-22T12:10:33.523Z,16.38
2019-05-22T12:13:03.862Z,16.47
2019-05-22T12:15:35.084Z,16.60
2019-05-22T12:18:04.948Z,17.15
2019-05-22T12:20:34.476Z,17.88
2019-05-22T12:23:03.892Z,18.33
2019-05-22T12:25:34.509Z,18.41
2019-05-22T12:28:05.075Z,18.38
2019-05-22T12:30:35.412Z,18.43
2019-05-22T12:33:13.127Z,18.52
2019-05-22T12:35:39.891Z,18.37
2019-05-22T12:38:10.063Z,18.31
2019-05-22T12:40:39.894Z,18.36
2019-05-22T12:43:10.300Z,18.60
2019-05-22T12:45:39.769Z,18.81
2019-05-22T12:48:09.400Z,18.92
2019-05-22T12:50:39.269Z,19.16
2019-05-22T12:53:09.254Z,19.44
2019-05-22T12:55:39.916Z,19.70
2019-05-22T12:58:11.045Z,19.66
2019-05-22T13:00:41.370Z,19.51
2019-05-22T13:03:11.688Z,19.52
2019-05-22T13:05:41.270Z,19.63
2019-05-22T13:08:12.521Z,19.86
2019-05-22T13:10:42.025Z,20.20
2019-05-22T13:13:11.584Z,20.32
2019-05-22T13:15:41.798Z,20.23
2019-05-22T13:18:13.060Z,20.16
2019-05-22T13:20:44.988Z,19.99
2019-05-22T13:23:17.002Z,19.98
2019-05-22T13:25:46.390Z,20.06
2019-05-22T13:28:18.318Z,20.02
2019-05-22T13:30:51.065Z,19.98
2019-05-22T13:33:22.365Z,20.08
2019-05-22T13:35:52.085Z,20.34
2019-05-22T13:38:21.639Z,20.56
2019-05-22T13:40:52.063Z,20.85
2019-05-22T13:43:21.420Z,21.13
2019-05-22T13:45:50.861Z,21.45
2019-05-22T13:48:20.412Z,21.68
2019-05-22T13:50:50.627Z,21.78
2019-05-22T13:53:21.442Z,21.60
2019-05-22T13:55:52.012Z,21.15
2019-05-22T13:58:23.662Z,20.88
2019-05-22T14:00:53.214Z,20.78
2019-05-22T14:03:24.013Z,20.92
2019-05-22T14:05:54.656Z,21.12
2019-05-22T14:08:24.778Z,21.30
2019-05-22T14:10:54.610Z,21.61
2019-05-22T14:13:26.369Z,22.00
2019-05-22T14:15:57.272Z,22.24
2019-05-22T14:18:27.670Z,22.11
2019-05-22T14:20:57.325Z,21.96
2019-05-22T14:23:26.782Z,22.00
2019-05-22T14:25:56.425Z,22.01
2019-05-22T14:28:27.384Z,22.04
2019-05-22T14:30:57.408Z,21.84
2019-05-22T14:33:28.293Z,21.77
2019-05-22T14:35:59.163Z,21.96
2019-05-22T14:38:29.210Z,22.23
2019-05-22T14:40:58.578Z,22.51
2019-05-22T14:43:29.102Z,22.72
2019-05-22T14:45:58.863Z,22.95
2019-05-22T14:48:28.549Z,23.21
2019-05-22T14:50:59.243Z,23.37
2019-05-22T14:53:28.973Z,23.43
2019-05-22T14:55:59.483Z,23.53
2019-05-22T14:58:29.084Z,23.34
2019-05-22T15:00:58.473Z,23.01
2019-05-22T15:03:28.219Z,22.71
2019-05-22T15:05:57.626Z,22.47
2019-05-22T15:08:27.289Z,22.23
2019-05-22T15:10:57.928Z,22.02
2019-05-22T15:13:27.627Z,21.90
2019-05-22T15:15:57.514Z,21.81
2019-05-22T15:18:26.937Z,21.69
2019-05-22T15:21:08.307Z,21.63
2019-05-22T15:23:38.519Z,21.67
2019-05-22T15:26:13.551Z,21.68
2019-05-22T15:29:02.713Z,21.72
2019-05-22T15:31:38.370Z,21.85
2019-05-22T15:34:07.828Z,22.00
2019-05-22T15:36:37.854Z,21.85
2019-05-22T15:39:08.817Z,21.86
2019-05-22T15:41:38.639Z,22.00
2019-05-22T15:44:08.648Z,22.17
2019-05-22T15:46:41.367Z,22.32
2019-05-22T15:49:10.853Z,22.47
2019-05-22T15:51:43.131Z,22.50
2019-05-22T15:54:14.187Z,22.57
2019-05-22T15:56:45.406Z,22.53
2019-05-22T15:59:15.057Z,22.40
2019-05-22T16:01:46.085Z,22.23
2019-05-22T16:04:16.564Z,22.05
2019-05-22T16:06:47.002Z,21.94
2019-05-22T16:09:17.969Z,21.79
2019-05-22T16:11:50.526Z,21.69
2019-05-22T16:14:19.895Z,21.62
2019-05-22T16:16:49.858Z,21.60
2019-05-22T16:19:21.195Z,21.53
2019-05-22T16:21:52.147Z,21.47
2019-05-22T16:24:22.311Z,21.32
2019-05-22T16:26:52.471Z,21.32
2019-05-22T16:29:22.038Z,21.26
2019-05-22T16:31:51.833Z,21.27
2019-05-22T16:34:21.991Z,21.36
2019-05-22T16:36:52.288Z,21.49
2019-05-22T16:39:22.338Z,21.62
2019-05-22T16:41:52.299Z,21.62
2019-05-22T16:44:22.082Z,21.48
2019-05-22T16:46:52.015Z,21.48
2019-05-22T16:49:22.261Z,21.38
2019-05-22T16:51:52.750Z,21.32
2019-05-22T16:54:22.866Z,21.30
2019-05-22T16:56:53.216Z,21.30
2019-05-22T16:59:23.293Z,21.32
2019-05-22T17:01:59.288Z,21.31
2019-05-22T17:04:23.926Z,21.20
2019-05-22T17:06:53.978Z,21.15
2019-05-22T17:09:23.951Z,21.09
2019-05-22T17:11:53.567Z,21.06
2019-05-22T17:14:24.961Z,21.00
2019-05-22T17:16:54.518Z,20.90
2019-05-22T17:19:27.451Z,20.80
2019-05-22T17:21:55.789Z,20.71
2019-05-22T17:24:27.153Z,20.65
2019-05-22T17:26:57.550Z,20.59
2019-05-22T17:29:27.344Z,20.57
2019-05-22T17:31:57.959Z,20.58
2019-05-22T17:34:35.135Z,20.61
2019-05-22T17:37:08.128Z,20.62
2019-05-22T17:39:39.254Z,20.54
2019-05-22T17:42:10.542Z,20.47
2019-05-22T17:44:42.733Z,20.43
2019-05-22T17:47:13.368Z,20.43
2019-05-22T17:49:42.812Z,20.43
2019-05-22T17:52:13.410Z,20.41
2019-05-22T17:54:42.794Z,20.40
2019-05-22T17:57:13.811Z,20.33
2019-05-22T17:59:43.546Z,20.32
2019-05-22T18:02:16.558Z,20.23
2019-05-22T18:04:45.928Z,20.12
2019-05-22T18:07:16.786Z,20.05
2019-05-22T18:09:46.160Z,20.01
2019-05-22T18:12:16.003Z,19.95
2019-05-22T18:14:46.787Z,19.83
2019-05-22T18:17:16.247Z,19.73
2019-05-22T18:19:45.634Z,19.68
2019-05-22T18:22:16.454Z,19.64
2019-05-22T18:24:46.194Z,19.61
2019-05-22T18:27:16.849Z,19.57
2019-05-22T18:29:46.217Z,19.52
2019-05-22T18:32:16.163Z,19.44
2019-05-22T18:34:45.525Z,19.36
2019-05-22T18:37:15.199Z,19.30
2019-05-22T18:39:44.944Z,19.23
2019-05-22T18:42:14.642Z,19.16
2019-05-22T18:44:44.010Z,19.08
2019-05-22T18:47:21.275Z,19.00
2019-05-22T18:49:50.795Z,18.89
2019-05-22T18:52:20.785Z,18.80
2019-05-22T18:54:50.232Z,18.74
2019-05-22T18:57:19.971Z,18.66
2019-05-22T18:59:49.669Z,18.56
2019-05-22T19:02:19.241Z,18.48
2019-05-22T19:04:49.100Z,18.40
2019-05-22T19:07:18.854Z,18.32
2019-05-22T19:09:48.227Z,18.22
2019-05-22T19:12:18.367Z,18.15
2019-05-22T19:14:47.808Z,18.09
2019-05-22T19:17:17.283Z,18.01
2019-05-22T19:19:46.765Z,17.93
2019-05-22T19:22:16.816Z,17.86
2019-05-22T19:24:46.189Z,17.78
2019-05-22T19:27:15.944Z,17.65
2019-05-22T19:29:45.332Z,17.63
2019-05-22T19:32:15.921Z,17.58
2019-05-22T19:34:45.411Z,17.54
2019-05-22T19:37:17.178Z,17.48
2019-05-22T19:39:46.910Z,17.43
2019-05-22T19:42:16.643Z,17.37
2019-05-22T19:44:46.098Z,17.31
2019-05-22T19:47:16.499Z,17.15
2019-05-22T19:49:46.053Z,17.15
2019-05-22T19:52:22.135Z,17.13
2019-05-22T19:54:48.880Z,17.00
2019-05-22T19:57:18.481Z,17.00
2019-05-22T19:59:48.113Z,16.91
2019-05-22T20:02:18.853Z,16.85
2019-05-22T20:04:48.298Z,16.78
2019-05-22T20:07:23.925Z,16.72
2019-05-22T20:31:04.082Z,16.18
2019-05-22T20:33:33.754Z,16.06
2019-05-22T20:36:03.152Z,15.96
2019-05-22T20:38:32.887Z,15.87
2019-05-22T20:41:02.239Z,15.79
2019-05-22T20:43:32.907Z,15.72
2019-05-22T20:46:02.809Z,15.64
2019-05-22T20:48:33.812Z,15.54
2019-05-22T20:51:04.656Z,15.47
2019-05-22T20:53:52.182Z,15.37
2019-05-22T20:56:08.068Z,15.36
2019-05-22T20:58:39.110Z,15.30
2019-05-22T21:01:10.402Z,15.24
2019-05-22T21:03:40.926Z,15.17
2019-05-22T21:06:12.378Z,15.13
2019-05-22T21:08:43.445Z,15.07
2019-05-22T21:11:16.238Z,15.00
2019-05-22T21:13:46.157Z,14.97
2019-05-22T21:16:17.523Z,14.91
2019-05-22T21:18:49.428Z,14.86
2019-05-22T21:21:19.267Z,14.80
2019-05-22T21:23:49.247Z,14.73
2019-05-22T21:26:20.606Z,14.68
2019-05-22T21:28:50.041Z,14.63
2019-05-22T21:31:20.701Z,14.57
2019-05-22T21:33:50.889Z,14.49
2019-05-22T21:36:20.629Z,14.42
2019-05-22T21:38:50.640Z,14.35
2019-05-22T21:41:21.922Z,14.29
2019-05-22T21:43:52.014Z,14.24
2019-05-22T21:46:21.998Z,14.21
2019-05-22T21:48:55.215Z,14.19
2019-05-22T21:51:24.690Z,14.17
2019-05-22T21:53:54.458Z,14.14
2019-05-22T21:56:24.935Z,14.09
2019-05-22T21:58:54.417Z,14.06
2019-05-22T22:01:29.307Z,14.01
2019-05-22T22:04:03.533Z,13.97
2019-05-22T22:06:34.684Z,13.93
2019-05-22T22:09:06.487Z,13.88
2019-05-22T22:11:36.826Z,13.84
2019-05-22T22:14:07.266Z,13.82
2019-05-22T22:16:36.750Z,13.79
2019-05-22T22:19:07.398Z,13.76
2019-05-22T22:21:38.695Z,13.75
2019-05-22T22:24:09.458Z,13.70
2019-05-22T22:26:39.152Z,13.66
2019-05-22T22:29:09.524Z,13.61
2019-05-22T22:31:40.670Z,13.58
2019-05-22T22:34:19.315Z,13.53
2019-05-22T22:36:49.159Z,13.51
2019-05-22T22:39:19.986Z,13.48
2019-05-22T22:41:50.583Z,13.44
2019-05-22T22:44:20.592Z,13.39
2019-05-22T22:46:52.124Z,13.34
2019-05-22T22:49:23.445Z,13.32
2019-05-22T22:51:53.085Z,13.29
2019-05-22T22:54:23.253Z,13.27
2019-05-22T22:56:53.401Z,13.25
2019-05-22T22:59:22.845Z,13.20
2019-05-22T23:01:54.939Z,13.14
2019-05-22T23:04:26.586Z,13.10
2019-05-22T23:06:58.826Z,13.06
2019-05-22T23:09:29.459Z,13.04
2019-05-22T23:11:59.794Z,13.01
2019-05-22T23:14:29.543Z,12.96
2019-05-22T23:16:59.090Z,12.93
2019-05-22T23:19:37.923Z,12.86
2019-05-22T23:22:08.080Z,12.80
2019-05-22T23:24:38.905Z,12.76
2019-05-22T23:27:10.128Z,12.73
2019-05-22T23:29:40.527Z,12.71
2019-05-22T23:32:11.934Z,12.68
2019-05-22T23:34:41.570Z,12.63
2019-05-22T23:37:13.074Z,12.59
2019-05-22T23:39:42.510Z,12.55
2019-05-22T23:42:16.148Z,12.51
2019-05-22T23:44:46.197Z,12.48
2019-05-22T23:47:15.666Z,12.42
2019-05-22T23:49:46.972Z,12.38
2019-05-22T23:52:16.629Z,12.33
2019-05-22T23:54:46.002Z,12.27
2019-05-22T23:57:16.717Z,12.22
2019-05-22T23:59:49.106Z,12.15
